createdAt,value
2022-12-29T00:00:14.264Z,0.22
2022-12-29T00:02:42.788Z,0.19
2022-12-29T00:05:09.609Z,0.21
2022-12-29T00:07:36.077Z,0.21
2022-12-29T00:10:02.729Z,0.21
2022-12-29T00:12:49.098Z,0.26
2022-12-29T00:15:34.263Z,0.28
2022-12-29T00:18:00.725Z,0.25
2022-12-29T00:20:45.823Z,0.23
2022-12-29T00:23:30.756Z,0.21
2022-12-29T00:26:15.706Z,0.25
2022-12-29T00:29:00.562Z,0.26
2022-12-29T00:31:45.510Z,0.23
2022-12-29T00:34:31.184Z,0.26
2022-12-29T00:36:58.015Z,0.26
2022-12-29T00:39:42.811Z,0.21
2022-12-29T00:42:28.780Z,0.16
2022-12-29T00:44:55.277Z,0.17
2022-12-29T00:47:21.742Z,0.22
2022-12-29T00:49:48.195Z,0.25
2022-12-29T00:52:15.011Z,0.24
2022-12-29T00:54:42.053Z,0.17
2022-12-29T00:57:10.060Z,0.18
2022-12-29T00:59:37.129Z,0.21
2022-12-29T01:02:03.867Z,0.22
2022-12-29T01:04:30.545Z,0.23
2022-12-29T01:06:57.010Z,0.23
2022-12-29T01:09:42.610Z,0.22
2022-12-29T01:12:10.344Z,0.29
2022-12-29T01:14:37.781Z,0.30
2022-12-29T01:17:04.553Z,0.33
2022-12-29T01:19:31.022Z,0.30
2022-12-29T01:21:57.613Z,0.28
2022-12-29T01:24:24.094Z,0.27
2022-12-29T01:26:50.689Z,0.28
2022-12-29T01:29:17.538Z,0.26
2022-12-29T01:31:44.684Z,0.20
2022-12-29T01:34:11.191Z,0.22
2022-12-29T01:36:37.641Z,0.25
2022-12-29T01:39:04.151Z,0.21
2022-12-29T01:41:30.631Z,0.22
2022-12-29T01:43:58.282Z,0.22
2022-12-29T01:46:27.461Z,0.21
2022-12-29T01:48:56.450Z,0.28
2022-12-29T01:51:24.463Z,0.30
2022-12-29T01:53:51.439Z,0.33
2022-12-29T01:56:20.604Z,0.42
2022-12-29T01:58:49.647Z,0.38
2022-12-29T02:01:16.871Z,0.40
2022-12-29T02:03:44.890Z,0.42
2022-12-29T02:06:14.744Z,0.42
2022-12-29T02:08:41.906Z,0.39
2022-12-29T02:11:08.520Z,0.40
2022-12-29T02:13:35.503Z,0.43
2022-12-29T02:16:13.256Z,0.46
2022-12-29T02:18:39.717Z,0.49
2022-12-29T02:21:09.253Z,0.51
2022-12-29T02:23:51.029Z,0.53
2022-12-29T02:26:29.169Z,0.49
2022-12-29T02:28:55.688Z,0.49
2022-12-29T02:31:22.212Z,0.45
2022-12-29T02:33:57.145Z,0.46
2022-12-29T02:36:38.831Z,0.44
2022-12-29T02:39:24.147Z,0.46
2022-12-29T02:42:04.547Z,0.44
2022-12-29T02:44:51.273Z,0.46
2022-12-29T02:47:23.580Z,0.49
2022-12-29T02:49:58.827Z,0.50
2022-12-29T02:52:31.467Z,0.47
2022-12-29T02:54:59.461Z,0.51
2022-12-29T02:57:26.607Z,0.50
2022-12-29T02:59:55.409Z,0.50
2022-12-29T03:02:37.141Z,0.56
2022-12-29T03:05:03.615Z,0.61
2022-12-29T03:07:36.230Z,0.63
2022-12-29T03:10:11.094Z,0.63
2022-12-29T03:12:59.465Z,0.68
2022-12-29T03:15:49.929Z,0.72
2022-12-29T03:18:34.747Z,0.71
2022-12-29T03:21:09.109Z,0.74
2022-12-29T03:23:37.277Z,0.74
2022-12-29T03:26:06.597Z,0.77
2022-12-29T03:28:36.218Z,0.75
2022-12-29T03:31:04.828Z,0.77
2022-12-29T03:33:33.381Z,0.73
2022-12-29T03:36:02.556Z,0.77
2022-12-29T03:38:34.571Z,0.82
2022-12-29T03:41:04.353Z,0.83
2022-12-29T03:43:31.001Z,0.81
2022-12-29T03:45:57.520Z,0.87
2022-12-29T03:48:23.999Z,0.90
2022-12-29T03:50:50.655Z,0.88
2022-12-29T03:53:17.129Z,0.91
2022-12-29T03:55:43.535Z,0.94
2022-12-29T03:58:09.947Z,0.85
2022-12-29T04:00:36.401Z,0.88
2022-12-29T04:03:03.084Z,0.93
2022-12-29T04:05:29.600Z,0.94
2022-12-29T04:07:56.047Z,0.96
2022-12-29T04:10:22.526Z,1.00
2022-12-29T04:12:48.985Z,0.99
2022-12-29T04:15:15.488Z,1.02
2022-12-29T04:17:42.000Z,1.06
2022-12-29T04:20:27.515Z,1.08
2022-12-29T04:23:04.414Z,1.07
2022-12-29T04:25:34.612Z,1.04
2022-12-29T04:28:01.258Z,1.08
2022-12-29T04:30:27.867Z,1.04
2022-12-29T04:32:54.423Z,1.05
2022-12-29T04:35:20.865Z,1.06
2022-12-29T04:37:47.330Z,1.06
2022-12-29T04:40:13.829Z,1.08
2022-12-29T04:42:40.353Z,1.10
2022-12-29T04:45:07.163Z,1.10
2022-12-29T04:47:33.801Z,1.10
2022-12-29T04:50:01.205Z,1.08
2022-12-29T04:52:27.677Z,1.09
2022-12-29T04:54:54.168Z,1.15
2022-12-29T04:57:20.764Z,1.12
2022-12-29T04:59:47.248Z,1.12
2022-12-29T05:02:13.875Z,1.14
2022-12-29T05:04:40.927Z,1.15
2022-12-29T05:07:07.425Z,1.17
2022-12-29T05:09:33.995Z,1.21
2022-12-29T05:12:00.798Z,1.24
2022-12-29T05:14:27.337Z,1.19
2022-12-29T05:16:53.845Z,1.16
2022-12-29T05:19:20.331Z,1.13
2022-12-29T05:21:46.797Z,1.18
2022-12-29T05:24:13.228Z,1.19
2022-12-29T05:26:39.646Z,1.15
2022-12-29T05:29:06.128Z,1.19
2022-12-29T05:31:32.698Z,1.22
2022-12-29T05:33:59.170Z,1.23
2022-12-29T05:36:25.654Z,1.23
2022-12-29T05:38:52.065Z,1.21
2022-12-29T05:41:18.584Z,1.24
2022-12-29T05:43:45.022Z,1.21
2022-12-29T05:46:11.501Z,1.16
2022-12-29T05:48:38.467Z,1.10
2022-12-29T05:51:05.132Z,1.13
2022-12-29T05:53:31.613Z,1.21
2022-12-29T05:55:58.100Z,1.24
2022-12-29T05:58:24.616Z,1.23
2022-12-29T06:00:51.673Z,1.23
2022-12-29T06:03:18.425Z,1.24
2022-12-29T06:05:47.795Z,1.24
2022-12-29T06:08:14.326Z,1.23
2022-12-29T06:10:40.811Z,1.24
2022-12-29T06:13:07.422Z,1.19
2022-12-29T06:15:34.485Z,1.21
2022-12-29T06:18:01.253Z,1.23
2022-12-29T06:20:27.679Z,1.20
2022-12-29T06:22:54.137Z,1.16
2022-12-29T06:25:20.624Z,1.18
2022-12-29T06:27:47.162Z,1.22
2022-12-29T06:30:14.041Z,1.21
2022-12-29T06:32:40.757Z,1.20
2022-12-29T06:35:07.351Z,1.16
2022-12-29T06:37:33.831Z,1.22
2022-12-29T06:40:00.347Z,1.25
2022-12-29T06:42:26.796Z,1.28
2022-12-29T06:44:53.437Z,1.31
2022-12-29T06:47:19.991Z,1.25
2022-12-29T06:49:46.627Z,1.30
2022-12-29T06:52:14.067Z,1.30
2022-12-29T06:54:40.794Z,1.32
2022-12-29T06:57:07.387Z,1.29
2022-12-29T06:59:33.899Z,1.26
2022-12-29T07:02:00.523Z,1.23
2022-12-29T07:04:27.192Z,1.27
2022-12-29T07:06:53.660Z,1.32
2022-12-29T07:09:20.145Z,1.33
2022-12-29T07:11:46.623Z,1.34
2022-12-29T07:14:13.082Z,1.26
2022-12-29T07:16:39.899Z,1.24
2022-12-29T07:19:06.813Z,1.30
2022-12-29T07:21:33.683Z,1.29
2022-12-29T07:24:00.382Z,1.32
2022-12-29T07:26:30.292Z,1.22
2022-12-29T07:29:01.054Z,1.29
2022-12-29T07:31:27.522Z,1.29
2022-12-29T07:33:53.980Z,1.34
2022-12-29T07:36:20.674Z,1.33
2022-12-29T07:38:47.077Z,1.26
2022-12-29T07:41:13.677Z,1.20
2022-12-29T07:43:40.647Z,1.19
2022-12-29T07:46:07.275Z,1.21
2022-12-29T07:48:36.948Z,1.29
2022-12-29T07:51:03.473Z,1.36
2022-12-29T07:53:30.529Z,1.39
2022-12-29T07:55:57.046Z,1.41
2022-12-29T07:58:23.581Z,1.42
2022-12-29T08:00:53.936Z,1.45
2022-12-29T08:03:20.439Z,1.47
2022-12-29T08:05:46.957Z,1.50
2022-12-29T08:08:13.426Z,1.52
2022-12-29T08:10:39.864Z,1.54
2022-12-29T08:13:06.344Z,1.48
2022-12-29T08:15:32.919Z,1.47
2022-12-29T08:18:00.058Z,1.54
2022-12-29T08:20:26.483Z,1.59
2022-12-29T08:22:52.897Z,1.65
2022-12-29T08:25:20.626Z,1.62
2022-12-29T08:27:47.305Z,1.61
2022-12-29T08:30:14.017Z,1.65
2022-12-29T08:32:40.464Z,1.62
2022-12-29T08:35:07.040Z,1.62
2022-12-29T08:37:34.474Z,1.60
2022-12-29T08:40:04.511Z,1.61
2022-12-29T08:42:32.274Z,1.64
2022-12-29T08:45:01.586Z,1.64
2022-12-29T08:47:28.486Z,1.71
2022-12-29T08:49:55.079Z,1.73
2022-12-29T08:52:21.582Z,1.77
2022-12-29T08:54:48.053Z,1.76
2022-12-29T08:57:14.585Z,1.83
2022-12-29T08:59:41.118Z,1.85
2022-12-29T09:02:11.248Z,1.86
2022-12-29T09:04:37.799Z,1.76
2022-12-29T09:07:04.274Z,1.69
2022-12-29T09:09:30.800Z,1.67
2022-12-29T09:11:57.255Z,1.73
2022-12-29T09:14:23.946Z,1.79
2022-12-29T09:17:10.464Z,1.78
2022-12-29T09:19:36.938Z,1.84
2022-12-29T09:22:04.075Z,1.85
2022-12-29T09:24:30.575Z,1.91
2022-12-29T09:26:57.059Z,1.89
2022-12-29T09:29:23.529Z,1.88
2022-12-29T09:31:50.474Z,1.85
2022-12-29T09:34:16.936Z,1.95
2022-12-29T09:36:43.460Z,2.00
2022-12-29T09:39:09.877Z,1.99
2022-12-29T09:41:40.155Z,2.02
2022-12-29T09:44:12.142Z,2.03
2022-12-29T09:46:41.170Z,2.03
2022-12-29T09:49:13.407Z,2.09
2022-12-29T09:51:42.542Z,2.09
2022-12-29T09:54:14.862Z,2.11
2022-12-29T09:56:41.663Z,2.11
2022-12-29T09:59:20.317Z,2.14
2022-12-29T10:02:06.127Z,2.18
2022-12-29T10:04:32.743Z,2.19
2022-12-29T10:07:28.446Z,2.19
2022-12-29T10:10:11.532Z,2.22
2022-12-29T10:12:41.051Z,2.24
2022-12-29T10:15:15.361Z,2.28
2022-12-29T10:17:41.862Z,2.32
2022-12-29T10:20:23.688Z,2.39
2022-12-29T10:23:03.153Z,2.42
2022-12-29T10:25:33.182Z,2.46
2022-12-29T10:28:04.502Z,2.50
2022-12-29T10:30:33.061Z,2.54
2022-12-29T10:33:02.907Z,2.59
2022-12-29T10:35:35.056Z,2.62
2022-12-29T10:38:12.205Z,2.64
2022-12-29T10:40:44.175Z,2.65
2022-12-29T10:43:25.128Z,2.67
2022-12-29T10:45:53.324Z,2.70
2022-12-29T10:48:30.195Z,2.72
2022-12-29T10:51:01.918Z,2.72
2022-12-29T10:53:34.257Z,2.75
2022-12-29T10:56:02.372Z,2.79
2022-12-29T10:58:30.090Z,2.78
2022-12-29T11:00:56.679Z,2.76
2022-12-29T11:03:32.297Z,2.73
2022-12-29T11:06:03.629Z,2.71
2022-12-29T11:08:34.443Z,2.66
2022-12-29T11:11:02.455Z,2.68
2022-12-29T11:13:36.524Z,2.71
2022-12-29T11:16:05.408Z,2.76
2022-12-29T11:18:38.381Z,2.78
2022-12-29T11:21:24.431Z,2.83
2022-12-29T11:23:58.691Z,2.91
2022-12-29T11:26:31.758Z,2.93
2022-12-29T11:29:15.697Z,2.96
2022-12-29T11:31:43.147Z,2.95
2022-12-29T11:34:09.748Z,3.00
2022-12-29T11:36:36.930Z,3.07
2022-12-29T11:39:07.613Z,3.17
2022-12-29T11:41:37.017Z,3.22
2022-12-29T11:44:06.169Z,3.24
2022-12-29T11:46:34.858Z,3.30
2022-12-29T11:49:02.543Z,3.38
2022-12-29T11:51:31.315Z,3.48
2022-12-29T11:53:59.370Z,3.55
2022-12-29T11:56:41.470Z,3.60
2022-12-29T11:59:23.271Z,3.62
2022-12-29T12:01:49.891Z,3.65
2022-12-29T12:04:18.232Z,3.64
2022-12-29T12:06:47.294Z,3.68
2022-12-29T12:09:28.538Z,3.66
2022-12-29T12:11:55.810Z,3.71
2022-12-29T12:14:28.743Z,3.76
2022-12-29T12:16:56.949Z,3.82
2022-12-29T12:19:44.437Z,3.86
2022-12-29T12:22:25.917Z,3.86
2022-12-29T12:24:55.331Z,3.87
2022-12-29T12:27:44.594Z,3.80
2022-12-29T12:30:17.000Z,3.78
2022-12-29T12:32:52.370Z,3.72
2022-12-29T12:35:25.161Z,3.68
2022-12-29T12:38:00.440Z,3.64
2022-12-29T12:40:26.903Z,3.65
2022-12-29T12:43:12.394Z,3.63
2022-12-29T12:45:51.652Z,3.64
2022-12-29T12:48:23.933Z,3.60
2022-12-29T12:51:00.488Z,3.55
2022-12-29T12:53:38.074Z,3.49
2022-12-29T12:56:17.011Z,3.41
2022-12-29T12:58:56.816Z,3.41
2022-12-29T13:01:42.134Z,3.44
2022-12-29T13:04:13.880Z,3.45
2022-12-29T13:06:48.054Z,3.48
2022-12-29T13:09:25.162Z,3.46
2022-12-29T13:11:54.417Z,3.46
2022-12-29T13:14:29.950Z,3.43
2022-12-29T13:17:16.652Z,3.36
2022-12-29T13:19:46.224Z,3.40
2022-12-29T13:22:12.998Z,3.44
2022-12-29T13:24:48.367Z,3.44
2022-12-29T13:27:24.432Z,3.44
2022-12-29T13:30:00.129Z,3.38
2022-12-29T13:32:28.319Z,3.27
2022-12-29T13:35:03.988Z,3.14
2022-12-29T13:37:32.600Z,3.05
2022-12-29T13:40:02.577Z,3.00
2022-12-29T13:42:29.609Z,2.92
2022-12-29T13:45:01.985Z,2.92
2022-12-29T13:47:32.168Z,2.88
2022-12-29T13:49:59.787Z,2.79
2022-12-29T13:52:33.618Z,2.75
2022-12-29T13:55:10.645Z,2.70
2022-12-29T13:57:59.831Z,2.73
2022-12-29T14:00:28.302Z,2.78
2022-12-29T14:03:05.583Z,2.74
2022-12-29T14:05:33.060Z,2.81
2022-12-29T14:08:01.229Z,2.77
2022-12-29T14:10:39.039Z,2.67
2022-12-29T14:13:11.552Z,2.58
2022-12-29T14:15:43.301Z,2.55
2022-12-29T14:18:15.457Z,2.56
2022-12-29T14:20:52.072Z,2.51
2022-12-29T14:23:27.902Z,2.49
2022-12-29T14:25:57.502Z,2.41
2022-12-29T14:28:33.991Z,2.32
2022-12-29T14:31:05.013Z,2.27
2022-12-29T14:33:32.853Z,2.26
2022-12-29T14:36:19.232Z,2.15
2022-12-29T14:38:46.925Z,2.04
2022-12-29T14:41:20.977Z,2.09
2022-12-29T14:43:59.905Z,2.10
2022-12-29T14:46:26.791Z,2.09
2022-12-29T14:49:02.166Z,2.01
2022-12-29T14:51:31.834Z,1.95
2022-12-29T14:53:58.352Z,2.05
2022-12-29T14:56:26.927Z,2.14
2022-12-29T14:58:53.556Z,2.03
2022-12-29T15:01:28.450Z,2.08
2022-12-29T15:03:59.803Z,2.04
2022-12-29T15:06:29.055Z,2.08
2022-12-29T15:09:01.145Z,2.13
2022-12-29T15:11:42.861Z,1.97
2022-12-29T15:14:28.170Z,1.90
2022-12-29T15:16:54.706Z,1.98
2022-12-29T15:19:25.112Z,2.00
2022-12-29T15:21:52.122Z,1.90
2022-12-29T15:24:18.621Z,1.88
2022-12-29T15:26:51.025Z,1.78
2022-12-29T15:29:35.975Z,1.73
2022-12-29T15:32:12.850Z,1.65
2022-12-29T15:34:39.687Z,1.64
2022-12-29T15:37:07.684Z,1.63
2022-12-29T15:39:34.463Z,1.60
2022-12-29T15:42:07.991Z,1.61
2022-12-29T15:44:39.367Z,1.64
2022-12-29T15:47:06.954Z,1.69
2022-12-29T15:49:34.019Z,1.70
2022-12-29T15:52:00.555Z,1.64
2022-12-29T15:54:30.781Z,1.55
2022-12-29T15:56:57.229Z,1.48
2022-12-29T15:59:34.504Z,1.51
2022-12-29T16:02:04.788Z,1.53
2022-12-29T16:04:48.415Z,1.41
2022-12-29T16:07:37.329Z,1.38
2022-12-29T16:10:23.295Z,1.32
2022-12-29T16:12:49.964Z,1.25
2022-12-29T16:15:16.507Z,1.22
2022-12-29T16:17:48.468Z,1.19
2022-12-29T16:20:18.152Z,1.24
2022-12-29T16:22:49.502Z,1.28
2022-12-29T16:25:22.117Z,1.23
2022-12-29T16:27:48.794Z,1.16
2022-12-29T16:30:34.587Z,1.13
2022-12-29T16:33:05.633Z,1.25
2022-12-29T16:35:44.366Z,1.19
2022-12-29T16:38:18.389Z,1.21
2022-12-29T16:40:57.926Z,1.14
2022-12-29T16:43:35.707Z,1.12
2022-12-29T16:46:02.303Z,1.16
2022-12-29T16:48:29.948Z,1.15
2022-12-29T16:51:06.984Z,1.13
2022-12-29T16:53:48.155Z,1.14
2022-12-29T16:56:16.329Z,1.22
2022-12-29T16:58:49.135Z,1.31
2022-12-29T17:01:19.876Z,1.43
2022-12-29T17:03:58.799Z,1.53
2022-12-29T17:06:25.362Z,1.54
2022-12-29T17:08:52.098Z,1.52
2022-12-29T17:12:02.547Z,1.49
2022-12-29T17:14:53.772Z,1.52
2022-12-29T17:17:34.171Z,1.60
2022-12-29T17:20:14.848Z,1.60
2022-12-29T17:22:41.292Z,1.63
2022-12-29T17:25:09.355Z,1.70
2022-12-29T17:27:41.751Z,1.64
2022-12-29T17:30:20.256Z,1.60
2022-12-29T17:32:51.701Z,1.59
2022-12-29T17:35:19.390Z,1.58
2022-12-29T17:37:46.192Z,1.56
2022-12-29T17:40:16.924Z,1.61
2022-12-29T17:42:47.819Z,1.70
2022-12-29T17:45:18.631Z,1.74
2022-12-29T17:47:45.219Z,1.77
2022-12-29T17:50:12.699Z,1.72
2022-12-29T17:52:39.275Z,1.66
2022-12-29T17:55:05.964Z,1.59
2022-12-29T17:57:32.418Z,1.58
2022-12-29T17:59:58.836Z,1.56
2022-12-29T18:02:27.357Z,1.61
2022-12-29T18:04:54.072Z,1.67
2022-12-29T18:07:20.640Z,1.66
2022-12-29T18:09:47.313Z,1.68
2022-12-29T18:12:37.501Z,1.62
2022-12-29T18:15:04.584Z,1.57
2022-12-29T18:17:31.043Z,1.51
2022-12-29T18:19:57.540Z,1.50
2022-12-29T18:22:24.582Z,1.47
2022-12-29T18:24:51.585Z,1.51
2022-12-29T18:27:19.568Z,1.54
2022-12-29T18:29:46.896Z,1.54
2022-12-29T18:32:13.896Z,1.54
2022-12-29T18:34:41.012Z,1.54
2022-12-29T18:37:07.670Z,1.52
2022-12-29T18:39:34.150Z,1.49
2022-12-29T18:42:00.639Z,1.50
2022-12-29T18:44:28.299Z,1.53
2022-12-29T18:46:55.216Z,1.62
2022-12-29T18:49:21.756Z,1.66
2022-12-29T18:51:48.265Z,1.67
2022-12-29T18:54:25.523Z,1.67
2022-12-29T18:56:52.043Z,1.67
2022-12-29T18:59:18.489Z,1.71
2022-12-29T19:01:45.008Z,1.71
2022-12-29T19:04:14.484Z,1.72
2022-12-29T19:06:41.047Z,1.72
2022-12-29T19:09:07.617Z,1.73
2022-12-29T19:11:34.467Z,1.75
2022-12-29T19:14:00.942Z,1.75
2022-12-29T19:16:27.455Z,1.73
2022-12-29T19:19:08.880Z,1.72
2022-12-29T19:21:36.858Z,1.68
2022-12-29T19:24:03.519Z,1.72
2022-12-29T19:26:31.445Z,1.76
2022-12-29T19:28:57.999Z,1.77
2022-12-29T19:31:24.499Z,1.70
2022-12-29T19:33:51.097Z,1.65
2022-12-29T19:36:18.021Z,1.63
2022-12-29T19:38:46.095Z,1.65
2022-12-29T19:41:13.100Z,1.68
2022-12-29T19:43:39.568Z,1.74
2022-12-29T19:46:07.334Z,1.71
2022-12-29T19:48:34.105Z,1.69
2022-12-29T19:51:04.593Z,1.73
2022-12-29T19:53:31.057Z,1.76
2022-12-29T19:55:57.518Z,1.77
2022-12-29T19:58:23.956Z,1.75
2022-12-29T20:00:51.372Z,1.73
2022-12-29T20:03:19.263Z,1.72
2022-12-29T20:05:49.572Z,1.72
2022-12-29T20:08:16.050Z,1.70
2022-12-29T20:10:42.542Z,1.64
2022-12-29T20:13:08.975Z,1.62
2022-12-29T20:15:35.518Z,1.62
2022-12-29T20:18:17.301Z,1.57
2022-12-29T20:20:43.887Z,1.51
2022-12-29T20:23:10.357Z,1.43
2022-12-29T20:25:45.566Z,1.46
2022-12-29T20:28:13.012Z,1.44
2022-12-29T20:30:39.551Z,1.45
2022-12-29T20:33:08.343Z,1.44
2022-12-29T20:35:35.560Z,1.40
2022-12-29T20:38:02.025Z,1.46
2022-12-29T20:40:28.507Z,1.51
2022-12-29T20:42:55.046Z,1.55
2022-12-29T20:45:21.738Z,1.55
2022-12-29T20:47:48.215Z,1.50
2022-12-29T20:50:14.697Z,1.44
2022-12-29T20:52:41.159Z,1.47
2022-12-29T20:55:07.728Z,1.49
2022-12-29T20:57:57.015Z,1.51
2022-12-29T21:00:22.661Z,1.51
2022-12-29T21:02:49.907Z,1.56
2022-12-29T21:05:24.886Z,1.57
2022-12-29T21:07:52.766Z,1.62
2022-12-29T21:10:19.440Z,1.62
2022-12-29T21:12:45.964Z,1.61
2022-12-29T21:15:14.528Z,1.53
2022-12-29T21:17:41.708Z,1.51
2022-12-29T21:20:08.408Z,1.56
2022-12-29T21:22:34.847Z,1.65
2022-12-29T21:25:01.290Z,1.69
2022-12-29T21:27:27.778Z,1.71
2022-12-29T21:29:54.205Z,1.70
2022-12-29T21:32:20.667Z,1.70
2022-12-29T21:34:47.123Z,1.74
2022-12-29T21:37:17.272Z,1.78
2022-12-29T21:39:46.482Z,1.82
2022-12-29T21:42:12.958Z,1.84
2022-12-29T21:44:57.912Z,1.85
2022-12-29T21:47:24.391Z,1.86
2022-12-29T21:49:50.807Z,1.87
2022-12-29T21:52:17.236Z,1.86
2022-12-29T21:55:01.843Z,1.85
2022-12-29T21:57:46.810Z,1.89
2022-12-29T22:00:32.188Z,1.88
2022-12-29T22:03:23.024Z,1.79
2022-12-29T22:06:09.643Z,1.77
2022-12-29T22:08:54.652Z,1.82
2022-12-29T22:11:39.935Z,1.84
2022-12-29T22:14:06.845Z,1.82
2022-12-29T22:16:33.345Z,1.83
2022-12-29T22:18:59.788Z,1.80
2022-12-29T22:21:26.295Z,1.86
2022-12-29T22:23:52.718Z,1.86
2022-12-29T22:26:19.216Z,1.91
2022-12-29T22:28:48.507Z,1.88
2022-12-29T22:31:21.923Z,1.84
2022-12-29T22:33:48.400Z,1.83
2022-12-29T22:36:14.992Z,1.82
2022-12-29T22:38:41.427Z,1.80
2022-12-29T22:41:07.881Z,1.79
2022-12-29T22:43:34.315Z,1.84
2022-12-29T22:46:04.341Z,1.80
2022-12-29T22:48:34.493Z,1.74
2022-12-29T22:51:01.017Z,1.78
2022-12-29T22:53:27.516Z,1.87
2022-12-29T22:56:03.964Z,1.86
2022-12-29T22:58:30.573Z,1.88
2022-12-29T23:00:57.023Z,1.86
2022-12-29T23:03:23.577Z,1.84
2022-12-29T23:06:00.827Z,1.86
2022-12-29T23:08:37.838Z,1.92
2022-12-29T23:11:05.625Z,1.95
2022-12-29T23:13:32.059Z,1.96
2022-12-29T23:15:58.899Z,1.97
2022-12-29T23:18:26.015Z,1.98
2022-12-29T23:20:52.519Z,2.00
2022-12-29T23:23:44.855Z,2.04
2022-12-29T23:26:15.507Z,2.09
2022-12-29T23:28:42.586Z,2.10
2022-12-29T23:31:09.282Z,2.12
2022-12-29T23:33:35.850Z,2.15
2022-12-29T23:36:02.267Z,2.17
2022-12-29T23:38:28.701Z,2.19
2022-12-29T23:40:55.310Z,2.21
2022-12-29T23:43:21.760Z,2.22
2022-12-29T23:45:51.071Z,2.26
2022-12-29T23:48:17.908Z,2.26
2022-12-29T23:50:44.441Z,2.27
2022-12-29T23:53:11.378Z,2.29
2022-12-29T23:55:40.990Z,2.30
2022-12-29T23:58:07.727Z,2.30
